createdAt,value
2018-11-11T00:02:26.680Z,9.60
2018-11-11T00:04:55.142Z,9.60
2018-11-11T00:07:23.204Z,9.60
2018-11-11T00:10:06.526Z,9.60
2018-11-11T00:12:34.560Z,9.50
2018-11-11T00:15:02.609Z,9.50
2018-11-11T00:17:30.740Z,9.40
2018-11-11T00:19:58.996Z,9.40
2018-11-11T00:22:27.634Z,9.40
2018-11-11T00:24:55.888Z,9.40
2018-11-11T00:27:24.117Z,9.30
2018-11-11T00:29:53.685Z,9.30
2018-11-11T00:32:22.228Z,9.30
2018-11-11T00:34:51.389Z,9.30
2018-11-11T00:37:19.461Z,9.30
2018-11-11T00:39:47.707Z,9.30
2018-11-11T00:42:16.309Z,9.30
2018-11-11T00:44:45.717Z,9.30
2018-11-11T00:47:13.674Z,9.20
2018-11-11T00:49:41.878Z,9.30
2018-11-11T00:52:10.413Z,9.30
2018-11-11T00:54:38.724Z,9.30
2018-11-11T00:57:07.473Z,9.30
2018-11-11T00:59:35.658Z,9.40
2018-11-11T01:02:03.794Z,9.40
2018-11-11T01:04:31.889Z,9.30
2018-11-11T01:07:00.004Z,9.30
2018-11-11T01:09:28.025Z,9.20
2018-11-11T01:11:56.225Z,9.20
2018-11-11T01:14:24.267Z,9.20
2018-11-11T01:16:52.302Z,9.10
2018-11-11T01:19:20.445Z,9.00
2018-11-11T01:21:49.706Z,8.90
2018-11-11T01:24:17.607Z,8.80
2018-11-11T01:26:45.571Z,8.80
2018-11-11T01:29:13.558Z,8.80
2018-11-11T01:31:41.807Z,8.80
2018-11-11T01:34:10.296Z,8.90
2018-11-11T01:36:38.330Z,9.00
2018-11-11T01:39:07.420Z,9.20
2018-11-11T01:41:36.349Z,9.20
2018-11-11T01:44:05.469Z,9.30
2018-11-11T01:46:33.930Z,9.30
2018-11-11T01:49:02.736Z,9.30
2018-11-11T01:51:30.642Z,9.30
2018-11-11T01:53:58.885Z,9.30
2018-11-11T01:56:26.762Z,9.20
2018-11-11T01:58:54.868Z,9.20
2018-11-11T02:01:22.873Z,9.20
2018-11-11T02:03:50.909Z,9.20
2018-11-11T02:06:18.937Z,9.20
2018-11-11T02:08:47.019Z,9.10
2018-11-11T02:11:15.082Z,9.10
2018-11-11T02:13:43.217Z,9.00
2018-11-11T02:16:11.288Z,9.00
2018-11-11T02:18:39.366Z,8.90
2018-11-11T02:21:07.565Z,8.80
2018-11-11T02:23:35.417Z,8.90
2018-11-11T02:26:03.494Z,8.80
2018-11-11T02:28:31.418Z,8.80
2018-11-11T02:30:59.429Z,8.70
2018-11-11T02:33:27.418Z,8.60
2018-11-11T02:35:55.341Z,8.60
2018-11-11T02:38:23.510Z,8.70
2018-11-11T02:40:51.501Z,8.70
2018-11-11T02:43:19.726Z,8.70
2018-11-11T02:45:47.850Z,8.70
2018-11-11T02:48:15.958Z,8.60
2018-11-11T02:50:43.845Z,8.70
2018-11-11T02:53:11.946Z,8.70
2018-11-11T02:55:39.855Z,8.60
2018-11-11T02:58:08.454Z,8.60
2018-11-11T03:00:36.604Z,8.60
2018-11-11T03:03:04.673Z,8.50
2018-11-11T03:05:32.767Z,8.40
2018-11-11T03:08:00.882Z,8.40
2018-11-11T03:10:29.459Z,8.30
2018-11-11T03:12:57.595Z,8.40
2018-11-11T03:15:25.571Z,8.40
2018-11-11T03:17:53.652Z,8.40
2018-11-11T03:20:21.729Z,8.40
2018-11-11T03:22:49.786Z,8.40
2018-11-11T03:25:18.134Z,8.30
2018-11-11T03:27:46.305Z,8.30
2018-11-11T03:30:15.661Z,8.30
2018-11-11T03:32:43.816Z,8.20
2018-11-11T03:35:12.680Z,8.20
2018-11-11T03:37:41.145Z,8.20
2018-11-11T03:40:12.451Z,8.20
2018-11-11T03:42:40.699Z,8.20
2018-11-11T03:45:10.760Z,8.20
2018-11-11T03:47:39.086Z,8.20
2018-11-11T03:50:08.093Z,8.30
2018-11-11T03:52:36.006Z,8.30
2018-11-11T03:55:04.663Z,8.40
2018-11-11T03:57:32.787Z,8.40
2018-11-11T04:00:01.177Z,8.40
2018-11-11T04:02:29.828Z,8.40
2018-11-11T04:04:57.886Z,8.40
2018-11-11T04:07:25.974Z,8.40
2018-11-11T04:09:53.994Z,8.30
2018-11-11T04:12:22.062Z,8.30
2018-11-11T04:14:50.374Z,8.30
2018-11-11T04:17:18.253Z,8.30
2018-11-11T04:19:46.197Z,8.20
2018-11-11T04:22:19.070Z,8.20
2018-11-11T04:24:48.880Z,8.20
2018-11-11T04:27:17.532Z,8.10
2018-11-11T04:29:45.680Z,8.10
2018-11-11T04:32:13.920Z,8.10
2018-11-11T04:34:42.905Z,8.00
2018-11-11T04:37:11.026Z,8.10
2018-11-11T04:39:39.668Z,8.10
2018-11-11T04:42:07.600Z,8.10
2018-11-11T04:44:35.665Z,8.10
2018-11-11T04:47:03.717Z,8.10
2018-11-11T04:49:31.609Z,8.10
2018-11-11T04:51:59.833Z,8.00
2018-11-11T04:54:28.033Z,8.00
2018-11-11T04:56:56.186Z,7.90
2018-11-11T04:59:24.157Z,7.80
2018-11-11T05:01:52.001Z,7.70
2018-11-11T05:04:19.981Z,7.70
2018-11-11T05:06:48.068Z,7.60
2018-11-11T05:09:16.041Z,7.70
2018-11-11T05:11:44.049Z,7.60
2018-11-11T05:14:12.080Z,7.60
2018-11-11T05:16:40.075Z,7.50
2018-11-11T05:19:09.632Z,7.50
2018-11-11T05:21:37.926Z,7.50
2018-11-11T05:24:06.004Z,7.40
2018-11-11T05:26:34.929Z,7.40
2018-11-11T05:29:03.363Z,7.30
2018-11-11T05:31:31.379Z,7.30
2018-11-11T05:33:59.352Z,7.20
2018-11-11T05:36:27.418Z,7.20
2018-11-11T05:38:55.432Z,7.30
2018-11-11T05:41:23.820Z,7.20
2018-11-11T05:43:52.342Z,7.20
2018-11-11T05:46:20.605Z,7.20
2018-11-11T05:48:48.889Z,7.20
2018-11-11T05:51:17.031Z,7.20
2018-11-11T05:53:45.188Z,7.20
2018-11-11T05:56:13.253Z,7.20
2018-11-11T05:58:41.664Z,7.20
2018-11-11T06:01:10.308Z,7.20
2018-11-11T06:03:38.819Z,7.20
2018-11-11T06:06:07.417Z,7.20
2018-11-11T06:08:35.746Z,7.20
2018-11-11T06:11:03.953Z,7.10
2018-11-11T06:13:32.798Z,7.10
2018-11-11T06:16:01.263Z,7.10
2018-11-11T06:18:29.379Z,7.00
2018-11-11T06:20:57.423Z,7.00
2018-11-11T06:23:25.506Z,7.00
2018-11-11T06:25:53.465Z,7.00
2018-11-11T06:28:21.511Z,6.90
2018-11-11T06:30:50.035Z,6.90
2018-11-11T06:33:18.221Z,6.80
2018-11-11T06:35:46.323Z,6.80
2018-11-11T06:38:14.610Z,6.70
2018-11-11T06:40:42.645Z,6.70
2018-11-11T06:43:10.983Z,6.60
2018-11-11T06:45:39.404Z,6.60
2018-11-11T06:48:07.504Z,6.50
2018-11-11T06:50:35.449Z,6.50
2018-11-11T06:53:03.508Z,6.40
2018-11-11T06:55:32.414Z,6.40
2018-11-11T06:58:00.768Z,6.30
2018-11-11T07:00:29.075Z,6.30
2018-11-11T07:04:03.695Z,6.20
2018-11-11T07:06:32.603Z,6.20
2018-11-11T07:09:00.613Z,6.10
2018-11-11T07:11:28.789Z,6.10
2018-11-11T07:13:56.841Z,6.20
2018-11-11T07:16:24.739Z,6.20
2018-11-11T07:18:52.814Z,6.30
2018-11-11T07:21:21.216Z,6.40
2018-11-11T07:23:49.721Z,6.60
2018-11-11T07:26:17.801Z,6.70
2018-11-11T07:28:45.869Z,6.90
2018-11-11T07:31:14.540Z,7.10
2018-11-11T07:33:42.557Z,7.20
2018-11-11T07:36:10.999Z,7.40
2018-11-11T07:38:40.151Z,7.50
2018-11-11T07:41:08.684Z,7.70
2018-11-11T07:43:37.435Z,7.90
2018-11-11T07:46:05.904Z,8.10
2018-11-11T07:48:34.286Z,8.30
2018-11-11T07:51:03.093Z,8.50
2018-11-11T07:53:31.246Z,8.60
2018-11-11T07:55:59.604Z,8.70
2018-11-11T07:58:27.883Z,8.80
2018-11-11T08:00:56.454Z,8.90
2018-11-11T08:03:24.626Z,8.90
2018-11-11T08:05:52.939Z,9.00
2018-11-11T08:08:21.406Z,9.00
2018-11-11T08:11:01.065Z,9.10
2018-11-11T08:13:29.785Z,9.20
2018-11-11T08:15:58.077Z,9.30
2018-11-11T08:18:26.168Z,9.40
2018-11-11T08:20:55.178Z,9.50
2018-11-11T08:23:23.704Z,9.60
2018-11-11T08:25:51.828Z,9.60
2018-11-11T08:28:20.062Z,9.70
2018-11-11T08:30:48.126Z,9.70
2018-11-11T08:33:16.115Z,9.70
2018-11-11T08:35:44.537Z,9.60
2018-11-11T08:38:12.655Z,9.60
2018-11-11T08:40:41.447Z,9.50
2018-11-11T08:43:09.455Z,9.50
2018-11-11T08:45:37.793Z,9.50
2018-11-11T08:48:05.931Z,9.50
2018-11-11T08:50:42.126Z,9.50
2018-11-11T08:53:10.111Z,9.50
2018-11-11T08:55:38.095Z,9.60
2018-11-11T08:58:06.183Z,9.60
2018-11-11T09:00:34.246Z,9.70
2018-11-11T09:03:02.575Z,9.70
2018-11-11T09:05:31.206Z,9.70
2018-11-11T09:08:00.015Z,9.70
2018-11-11T09:10:28.953Z,9.70
2018-11-11T09:12:57.643Z,9.70
2018-11-11T09:15:25.637Z,9.90
2018-11-11T09:17:53.957Z,10.00
2018-11-11T09:20:22.076Z,10.20
2018-11-11T09:22:50.581Z,10.40
2018-11-11T09:25:18.999Z,10.70
2018-11-11T09:27:47.591Z,10.80
2018-11-11T09:30:19.992Z,10.90
2018-11-11T09:32:48.075Z,11.00
2018-11-11T09:35:16.375Z,11.00
2018-11-11T09:37:44.702Z,11.10
2018-11-11T09:40:13.703Z,11.10
2018-11-11T09:42:42.407Z,11.10
2018-11-11T09:45:13.019Z,11.20
2018-11-11T09:47:43.192Z,11.10
2018-11-11T09:50:14.095Z,11.10
2018-11-11T09:52:42.337Z,11.10
2018-11-11T09:55:11.624Z,11.10
2018-11-11T09:57:40.353Z,11.10
2018-11-11T10:00:11.294Z,11.10
2018-11-11T10:02:40.287Z,11.20
2018-11-11T10:05:16.485Z,11.20
2018-11-11T10:07:59.066Z,11.30
2018-11-11T10:10:32.221Z,11.40
2018-11-11T10:13:11.217Z,11.50
2018-11-11T10:15:48.847Z,11.50
2018-11-11T10:18:53.253Z,11.70
2018-11-11T10:21:41.099Z,11.80
2018-11-11T10:24:14.543Z,11.80
2018-11-11T10:26:48.171Z,11.90
2018-11-11T10:29:36.047Z,11.90
2018-11-11T10:32:18.353Z,12.00
2018-11-11T10:34:57.648Z,12.00
2018-11-11T10:37:38.553Z,12.00
2018-11-11T10:40:11.663Z,12.00
2018-11-11T10:43:46.189Z,12.00
2018-11-11T10:46:22.046Z,12.00
2018-11-11T10:48:53.854Z,12.10
2018-11-11T10:51:22.222Z,12.10
2018-11-11T10:53:50.556Z,12.10
2018-11-11T10:56:18.549Z,12.10
2018-11-11T10:58:46.988Z,12.10
2018-11-11T11:01:18.898Z,12.00
2018-11-11T11:03:47.670Z,12.00
2018-11-11T11:06:15.988Z,12.00
2018-11-11T11:08:49.854Z,12.00
2018-11-11T11:11:18.168Z,12.00
2018-11-11T11:13:46.733Z,11.90
2018-11-11T11:16:15.211Z,11.90
2018-11-11T11:18:44.311Z,11.80
2018-11-11T11:21:12.559Z,11.80
2018-11-11T11:23:40.724Z,11.90
2018-11-11T11:26:09.711Z,12.00
2018-11-11T11:28:38.091Z,12.00
2018-11-11T11:31:06.557Z,12.20
2018-11-11T11:33:34.615Z,12.20
2018-11-11T11:36:02.714Z,12.30
2018-11-11T11:38:30.740Z,12.20
2018-11-11T11:40:58.626Z,12.20
2018-11-11T11:43:27.062Z,12.20
2018-11-11T11:45:56.620Z,12.10
2018-11-11T11:48:25.446Z,12.00
2018-11-11T11:50:53.972Z,12.00
2018-11-11T11:53:23.003Z,12.00
2018-11-11T11:55:51.234Z,12.10
2018-11-11T11:58:21.438Z,12.00
2018-11-11T12:00:51.438Z,12.00
2018-11-11T12:03:22.261Z,12.10
2018-11-11T12:05:53.517Z,12.20
2018-11-11T12:08:25.351Z,12.20
2018-11-11T12:10:54.620Z,12.10
2018-11-11T12:13:24.564Z,11.90
2018-11-11T12:15:53.657Z,11.90
2018-11-11T12:18:22.497Z,11.90
2018-11-11T12:20:51.529Z,11.90
2018-11-11T12:23:20.918Z,11.90
2018-11-11T12:25:51.416Z,11.90
2018-11-11T12:28:20.591Z,12.00
2018-11-11T12:30:51.295Z,12.10
2018-11-11T12:33:21.588Z,12.10
2018-11-11T12:35:50.985Z,12.00
2018-11-11T12:38:21.045Z,11.80
2018-11-11T12:40:53.345Z,11.70
2018-11-11T12:43:22.817Z,11.70
2018-11-11T12:45:54.710Z,11.70
2018-11-11T12:48:25.968Z,11.80
2018-11-11T12:50:56.562Z,12.00
2018-11-11T12:53:25.432Z,12.10
2018-11-11T12:55:53.762Z,12.20
2018-11-11T12:58:23.270Z,12.20
2018-11-11T13:00:51.684Z,12.30
2018-11-11T13:03:19.804Z,12.20
2018-11-11T13:05:48.260Z,12.20
2018-11-11T13:08:18.318Z,12.20
2018-11-11T13:10:47.377Z,12.10
2018-11-11T13:13:16.862Z,12.10
2018-11-11T13:15:45.426Z,12.00
2018-11-11T13:18:14.857Z,11.90
2018-11-11T13:20:43.459Z,11.90
2018-11-11T13:23:12.224Z,11.90
2018-11-11T13:25:40.939Z,11.90
2018-11-11T13:28:12.564Z,11.90
2018-11-11T13:30:41.487Z,12.10
2018-11-11T13:33:10.691Z,12.20
2018-11-11T13:35:39.829Z,12.30
2018-11-11T13:38:08.591Z,12.40
2018-11-11T13:40:37.692Z,12.60
2018-11-11T13:43:06.539Z,12.60
2018-11-11T13:45:35.347Z,12.70
2018-11-11T13:48:04.272Z,12.80
2018-11-11T13:50:33.006Z,12.80
2018-11-11T13:53:01.621Z,12.70
2018-11-11T13:55:30.179Z,12.70
2018-11-11T13:57:58.807Z,12.60
2018-11-11T14:00:28.508Z,12.60
2018-11-11T14:02:57.476Z,12.70
2018-11-11T14:05:25.610Z,12.70
2018-11-11T14:07:54.355Z,12.80
2018-11-11T14:10:22.436Z,12.70
2018-11-11T14:12:51.442Z,12.70
2018-11-11T14:15:21.600Z,12.70
2018-11-11T14:17:50.306Z,12.70
2018-11-11T14:20:19.880Z,12.60
2018-11-11T14:22:48.844Z,12.60
2018-11-11T14:25:21.207Z,12.60
2018-11-11T14:27:51.064Z,12.50
2018-11-11T14:30:25.874Z,12.50
2018-11-11T14:32:55.742Z,12.40
2018-11-11T14:35:24.242Z,12.40
2018-11-11T14:37:52.806Z,12.30
2018-11-11T14:40:24.831Z,12.30
2018-11-11T14:42:54.480Z,12.30
2018-11-11T14:45:24.121Z,12.30
2018-11-11T14:47:54.372Z,12.30
2018-11-11T14:50:23.745Z,12.30
2018-11-11T14:52:52.521Z,12.20
2018-11-11T14:55:22.709Z,12.20
2018-11-11T14:57:51.414Z,12.20
2018-11-11T15:00:28.387Z,12.20
2018-11-11T15:03:07.759Z,12.20
2018-11-11T15:05:35.825Z,12.20
2018-11-11T15:08:04.289Z,12.20
2018-11-11T15:10:32.565Z,12.30
2018-11-11T15:13:01.627Z,12.40
2018-11-11T15:15:29.987Z,12.30
2018-11-11T15:17:59.579Z,12.20
2018-11-11T15:20:27.964Z,12.20
2018-11-11T15:22:57.079Z,12.30
2018-11-11T15:25:26.694Z,12.30
2018-11-11T15:27:55.767Z,12.20
2018-11-11T15:30:26.152Z,12.10
2018-11-11T15:32:56.511Z,12.10
2018-11-11T15:35:24.934Z,12.00
2018-11-11T15:37:53.694Z,12.00
2018-11-11T15:40:24.469Z,12.00
2018-11-11T15:42:53.309Z,11.90
2018-11-11T15:45:23.023Z,11.80
2018-11-11T15:47:53.186Z,11.70
2018-11-11T15:50:23.397Z,11.70
2018-11-11T15:52:52.970Z,11.70
2018-11-11T15:55:22.303Z,11.60
2018-11-11T15:57:50.620Z,11.60
2018-11-11T16:00:22.174Z,11.50
2018-11-11T16:02:50.797Z,11.50
2018-11-11T16:05:19.384Z,11.50
2018-11-11T16:07:48.380Z,11.60
2018-11-11T16:10:18.731Z,11.60
2018-11-11T16:12:48.651Z,11.50
2018-11-11T16:15:50.956Z,11.50
2018-11-11T16:18:19.075Z,11.50
2018-11-11T16:20:47.447Z,11.40
2018-11-11T16:23:16.432Z,11.50
2018-11-11T16:25:44.718Z,11.50
2018-11-11T16:28:14.356Z,11.40
2018-11-11T16:30:42.511Z,11.50
2018-11-11T16:33:10.861Z,11.50
2018-11-11T16:35:41.093Z,11.50
2018-11-11T16:38:09.565Z,11.40
2018-11-11T16:40:38.600Z,11.40
2018-11-11T16:43:07.094Z,11.30
2018-11-11T16:45:36.220Z,11.40
2018-11-11T16:48:05.495Z,11.40
2018-11-11T16:50:34.648Z,11.30
2018-11-11T16:53:05.678Z,11.20
2018-11-11T16:55:34.701Z,11.10
2018-11-11T16:58:03.044Z,11.10
2018-11-11T17:00:32.985Z,11.10
2018-11-11T17:03:03.814Z,11.20
2018-11-11T17:05:33.347Z,11.20
2018-11-11T17:08:07.191Z,11.20
2018-11-11T17:10:37.332Z,11.30
2018-11-11T17:13:14.654Z,11.30
2018-11-11T17:15:43.931Z,11.20
2018-11-11T17:18:12.577Z,11.30
2018-11-11T17:20:41.752Z,11.20
2018-11-11T17:23:10.129Z,11.20
2018-11-11T17:25:38.915Z,11.20
2018-11-11T17:28:07.712Z,11.20
2018-11-11T17:30:36.068Z,11.20
2018-11-11T17:36:04.965Z,11.20
2018-11-11T17:38:33.288Z,11.10
2018-11-11T17:41:02.240Z,11.00
2018-11-11T17:43:31.285Z,11.00
2018-11-11T17:46:00.567Z,11.00
2018-11-11T17:48:31.036Z,10.80
2018-11-11T17:50:59.637Z,10.70
2018-11-11T17:53:27.792Z,10.70
2018-11-11T17:55:56.138Z,10.80
2018-11-11T17:58:24.559Z,10.80
2018-11-11T18:00:52.671Z,10.80
2018-11-11T18:03:21.027Z,10.70
2018-11-11T18:05:50.039Z,10.60
2018-11-11T18:08:18.750Z,10.60
2018-11-11T18:10:47.327Z,10.80
2018-11-11T18:13:16.619Z,10.80
2018-11-11T18:15:46.847Z,10.70
2018-11-11T18:18:15.879Z,10.60
2018-11-11T18:20:44.653Z,10.50
2018-11-11T18:23:12.920Z,10.60
2018-11-11T18:25:41.857Z,10.70
2018-11-11T18:28:11.055Z,10.80
2018-11-11T18:30:40.870Z,10.80
2018-11-11T18:33:09.480Z,10.90
2018-11-11T18:35:38.396Z,10.90
2018-11-11T18:38:07.208Z,10.80
2018-11-11T18:40:35.177Z,10.80
2018-11-11T18:43:03.465Z,10.80
2018-11-11T18:45:31.775Z,10.70
2018-11-11T18:48:00.678Z,10.60
2018-11-11T18:50:32.144Z,10.50
2018-11-11T18:53:01.735Z,10.40
2018-11-11T18:55:30.135Z,10.30
2018-11-11T18:57:59.644Z,10.20
2018-11-11T19:00:30.774Z,10.20
2018-11-11T19:03:03.048Z,10.20
2018-11-11T19:05:33.401Z,10.20
2018-11-11T19:08:02.837Z,10.20
2018-11-11T19:10:32.781Z,10.10
2018-11-11T19:13:06.231Z,10.00
2018-11-11T19:15:35.830Z,9.90
2018-11-11T19:18:04.377Z,9.80
2018-11-11T19:20:32.861Z,9.70
2018-11-11T19:23:02.149Z,9.60
2018-11-11T19:25:31.862Z,9.50
2018-11-11T19:28:01.137Z,9.60
2018-11-11T19:30:30.102Z,9.80
2018-11-11T19:32:58.462Z,9.90
2018-11-11T19:35:26.964Z,10.00
2018-11-11T19:37:57.370Z,10.00
2018-11-11T19:40:28.016Z,9.90
2018-11-11T19:42:58.127Z,10.00
2018-11-11T19:45:27.624Z,10.10
2018-11-11T19:47:56.407Z,10.30
2018-11-11T19:50:27.173Z,10.20
2018-11-11T19:52:56.439Z,10.10
2018-11-11T19:55:25.339Z,10.10
2018-11-11T19:57:54.159Z,10.10
2018-11-11T20:00:31.212Z,10.00
2018-11-11T20:03:01.458Z,9.90
2018-11-11T20:05:30.731Z,9.90
2018-11-11T20:08:00.573Z,9.80
2018-11-11T20:10:29.538Z,9.70
2018-11-11T20:12:59.814Z,9.70
2018-11-11T20:15:29.967Z,9.70
2018-11-11T20:17:58.575Z,9.70
2018-11-11T20:20:29.929Z,9.70
2018-11-11T20:22:58.155Z,9.80
2018-11-11T20:25:26.771Z,9.70
2018-11-11T20:27:57.384Z,9.80
2018-11-11T20:30:27.299Z,9.80
2018-11-11T20:32:56.280Z,10.00
2018-11-11T20:35:26.024Z,10.10
2018-11-11T20:37:55.964Z,10.20
2018-11-11T20:40:25.067Z,10.20
2018-11-11T20:42:53.707Z,10.20
2018-11-11T20:45:23.056Z,10.20
2018-11-11T20:47:52.518Z,10.20
2018-11-11T20:50:22.394Z,10.00
2018-11-11T20:52:52.667Z,9.90
2018-11-11T20:55:21.508Z,9.80
2018-11-11T20:57:50.583Z,9.80
2018-11-11T21:00:22.554Z,9.90
2018-11-11T21:02:52.411Z,9.90
2018-11-11T21:05:24.247Z,9.90
2018-11-11T21:07:52.593Z,10.00
2018-11-11T21:10:22.894Z,10.10
2018-11-11T21:12:52.079Z,10.00
2018-11-11T21:15:21.468Z,10.00
2018-11-11T21:17:50.201Z,10.00
2018-11-11T21:20:24.814Z,9.90
2018-11-11T21:22:53.940Z,9.80
2018-11-11T21:25:23.357Z,9.70
2018-11-11T21:27:53.481Z,9.60
2018-11-11T21:30:24.979Z,9.50
2018-11-11T21:32:54.382Z,9.40
2018-11-11T21:35:23.135Z,9.40
2018-11-11T21:37:55.658Z,9.30
2018-11-11T21:40:25.189Z,9.20
2018-11-11T21:42:54.288Z,9.10
2018-11-11T21:45:24.674Z,9.20
2018-11-11T21:47:53.124Z,9.20
2018-11-11T21:50:22.649Z,9.20
2018-11-11T21:52:59.312Z,9.30
2018-11-11T21:55:28.316Z,9.40
2018-11-11T21:57:57.209Z,9.50
2018-11-11T22:00:26.545Z,9.70
2018-11-11T22:02:55.349Z,9.70
2018-11-11T22:05:23.845Z,9.60
2018-11-11T22:07:52.004Z,9.60
2018-11-11T22:10:20.103Z,9.60
2018-11-11T22:12:49.331Z,9.50
2018-11-11T22:15:17.504Z,9.40
2018-11-11T22:17:48.016Z,9.40
2018-11-11T22:20:17.765Z,9.30
2018-11-11T22:22:47.944Z,9.40
2018-11-11T22:25:20.083Z,9.40
2018-11-11T22:27:49.308Z,9.40
2018-11-11T22:30:18.781Z,9.40
2018-11-11T22:32:49.246Z,9.40
2018-11-11T22:35:20.557Z,9.40
2018-11-11T22:37:53.579Z,9.40
2018-11-11T22:40:23.350Z,9.50
2018-11-11T22:42:53.257Z,9.60
2018-11-11T22:45:21.837Z,9.70
2018-11-11T22:47:50.029Z,9.80
2018-11-11T22:50:18.973Z,9.80
2018-11-11T22:52:47.034Z,10.00
2018-11-11T22:55:16.187Z,10.20
2018-11-11T22:57:44.464Z,10.30
2018-11-11T23:00:20.342Z,10.30
2018-11-11T23:02:49.328Z,10.40
2018-11-11T23:05:18.715Z,10.50
2018-11-11T23:07:47.068Z,10.50
2018-11-11T23:10:16.055Z,10.60
2018-11-11T23:12:45.104Z,10.60
2018-11-11T23:15:16.247Z,10.60
2018-11-11T23:17:45.208Z,10.70
2018-11-11T23:20:16.178Z,10.70
2018-11-11T23:22:50.755Z,10.80
2018-11-11T23:25:19.293Z,10.80
2018-11-11T23:27:49.514Z,10.80
2018-11-11T23:30:22.289Z,11.00
2018-11-11T23:32:51.203Z,11.00
2018-11-11T23:35:19.839Z,11.00
2018-11-11T23:37:49.777Z,11.00
2018-11-11T23:40:19.233Z,11.00
2018-11-11T23:42:48.576Z,10.90
2018-11-11T23:46:20.390Z,10.90
2018-11-11T23:48:48.625Z,10.80
2018-11-11T23:51:17.070Z,10.70
2018-11-11T23:53:45.621Z,10.70
2018-11-11T23:56:13.823Z,10.60
2018-11-11T23:58:42.071Z,10.70
